sensor_id;sensor_type;location;lat;lon;timestamp;temperature;humidity
44427;DHT22;30133;47.866;-4.222;2022-10-01T00:01:15;21.40;55.90
44427;DHT22;30133;47.866;-4.222;2022-10-01T00:03:43;21.40;55.90
44427;DHT22;30133;47.866;-4.222;2022-10-01T00:06:15;21.40;55.90
44427;DHT22;30133;47.866;-4.222;2022-10-01T00:08:44;21.40;55.90
44427;DHT22;30133;47.866;-4.222;2022-10-01T00:11:20;21.40;55.90
44427;DHT22;30133;47.866;-4.222;2022-10-01T00:13:48;21.40;55.90
44427;DHT22;30133;47.866;-4.222;2022-10-01T00:16:18;21.40;55.90
44427;DHT22;30133;47.866;-4.222;2022-10-01T00:18:49;21.40;56.00
44427;DHT22;30133;47.866;-4.222;2022-10-01T00:21:23;21.40;56.00
44427;DHT22;30133;47.866;-4.222;2022-10-01T00:23:55;21.40;56.00
44427;DHT22;30133;47.866;-4.222;2022-10-01T00:26:35;21.40;56.00
44427;DHT22;30133;47.866;-4.222;2022-10-01T00:29:05;21.40;56.00
44427;DHT22;30133;47.866;-4.222;2022-10-01T00:31:32;21.40;56.00
44427;DHT22;30133;47.866;-4.222;2022-10-01T00:33:59;21.40;56.00
44427;DHT22;30133;47.866;-4.222;2022-10-01T00:36:27;21.40;56.00
44427;DHT22;30133;47.866;-4.222;2022-10-01T00:38:55;21.40;56.00
44427;DHT22;30133;47.866;-4.222;2022-10-01T00:41:25;21.40;56.00
44427;DHT22;30133;47.866;-4.222;2022-10-01T00:43:59;21.40;56.00
44427;DHT22;30133;47.866;-4.222;2022-10-01T00:46:48;21.40;56.00
44427;DHT22;30133;47.866;-4.222;2022-10-01T00:49:18;21.40;56.10
44427;DHT22;30133;47.866;-4.222;2022-10-01T00:51:56;21.40;56.10
44427;DHT22;30133;47.866;-4.222;2022-10-01T00:54:28;21.40;56.10
44427;DHT22;30133;47.866;-4.222;2022-10-01T00:57:18;21.40;56.20
44427;DHT22;30133;47.866;-4.222;2022-10-01T00:59:48;21.40;56.20
44427;DHT22;30133;47.866;-4.222;2022-10-01T01:02:15;21.40;56.20
44427;DHT22;30133;47.866;-4.222;2022-10-01T01:04:41;21.40;56.20
44427;DHT22;30133;47.866;-4.222;2022-10-01T01:07:08;21.40;56.10
44427;DHT22;30133;47.866;-4.222;2022-10-01T01:09:37;21.40;56.20
44427;DHT22;30133;47.866;-4.222;2022-10-01T01:18:09;21.40;56.20
44427;DHT22;30133;47.866;-4.222;2022-10-01T01:21:10;21.40;56.20
44427;DHT22;30133;47.866;-4.222;2022-10-01T01:26:58;21.30;56.30
44427;DHT22;30133;47.866;-4.222;2022-10-01T01:29:49;21.30;56.30
44427;DHT22;30133;47.866;-4.222;2022-10-01T01:32:28;21.30;56.30
44427;DHT22;30133;47.866;-4.222;2022-10-01T01:34:59;21.30;56.30
44427;DHT22;30133;47.866;-4.222;2022-10-01T01:37:30;21.30;56.30
44427;DHT22;30133;47.866;-4.222;2022-10-01T01:40:01;21.30;56.30
44427;DHT22;30133;47.866;-4.222;2022-10-01T01:42:32;21.30;56.30
44427;DHT22;30133;47.866;-4.222;2022-10-01T01:45:04;21.30;56.30
44427;DHT22;30133;47.866;-4.222;2022-10-01T01:47:34;21.40;56.40
44427;DHT22;30133;47.866;-4.222;2022-10-01T01:50:04;21.30;56.30
44427;DHT22;30133;47.866;-4.222;2022-10-01T01:52:33;21.30;56.40
44427;DHT22;30133;47.866;-4.222;2022-10-01T01:55:00;21.30;56.30
44427;DHT22;30133;47.866;-4.222;2022-10-01T01:57:32;21.30;56.40
44427;DHT22;30133;47.866;-4.222;2022-10-01T01:59:58;21.30;56.40
44427;DHT22;30133;47.866;-4.222;2022-10-01T02:02:30;21.30;56.40
44427;DHT22;30133;47.866;-4.222;2022-10-01T02:05:03;21.30;56.40
44427;DHT22;30133;47.866;-4.222;2022-10-01T02:13:24;21.30;56.40
44427;DHT22;30133;47.866;-4.222;2022-10-01T02:21:57;21.30;56.50
44427;DHT22;30133;47.866;-4.222;2022-10-01T02:24:35;21.30;56.50
44427;DHT22;30133;47.866;-4.222;2022-10-01T02:27:12;21.30;56.50
44427;DHT22;30133;47.866;-4.222;2022-10-01T02:29:44;21.30;56.50
44427;DHT22;30133;47.866;-4.222;2022-10-01T02:32:12;21.30;56.50
44427;DHT22;30133;47.866;-4.222;2022-10-01T02:34:39;21.30;56.50
44427;DHT22;30133;47.866;-4.222;2022-10-01T02:37:07;21.30;56.50
44427;DHT22;30133;47.866;-4.222;2022-10-01T02:39:37;21.30;56.50
44427;DHT22;30133;47.866;-4.222;2022-10-01T02:42:08;21.30;56.50
44427;DHT22;30133;47.866;-4.222;2022-10-01T02:44:40;21.30;56.60
44427;DHT22;30133;47.866;-4.222;2022-10-01T02:49:46;21.30;56.60
44427;DHT22;30133;47.866;-4.222;2022-10-01T02:54:57;21.30;56.60
44427;DHT22;30133;47.866;-4.222;2022-10-01T02:57:24;21.30;56.60
44427;DHT22;30133;47.866;-4.222;2022-10-01T02:59:59;21.30;56.70
44427;DHT22;30133;47.866;-4.222;2022-10-01T03:02:27;21.30;56.70
44427;DHT22;30133;47.866;-4.222;2022-10-01T03:04:56;21.30;56.70
44427;DHT22;30133;47.866;-4.222;2022-10-01T03:07:23;21.20;56.60
44427;DHT22;30133;47.866;-4.222;2022-10-01T03:09:51;21.30;56.70
44427;DHT22;30133;47.866;-4.222;2022-10-01T03:12:18;21.30;56.70
44427;DHT22;30133;47.866;-4.222;2022-10-01T03:14:45;21.30;57.20
44427;DHT22;30133;47.866;-4.222;2022-10-01T03:17:12;21.30;56.60
44427;DHT22;30133;47.866;-4.222;2022-10-01T03:19:38;21.30;56.60
44427;DHT22;30133;47.866;-4.222;2022-10-01T03:22:05;21.30;56.70
44427;DHT22;30133;47.866;-4.222;2022-10-01T03:24:32;21.30;56.60
44427;DHT22;30133;47.866;-4.222;2022-10-01T03:26:58;21.30;56.70
44427;DHT22;30133;47.866;-4.222;2022-10-01T03:29:25;21.30;56.60
44427;DHT22;30133;47.866;-4.222;2022-10-01T03:31:52;21.30;56.70
44427;DHT22;30133;47.866;-4.222;2022-10-01T03:34:18;21.30;56.70
44427;DHT22;30133;47.866;-4.222;2022-10-01T03:36:44;21.30;56.70
44427;DHT22;30133;47.866;-4.222;2022-10-01T03:39:10;21.30;56.70
44427;DHT22;30133;47.866;-4.222;2022-10-01T03:41:36;21.30;56.70
44427;DHT22;30133;47.866;-4.222;2022-10-01T03:44:02;21.30;56.70
44427;DHT22;30133;47.866;-4.222;2022-10-01T03:46:29;21.30;56.70
44427;DHT22;30133;47.866;-4.222;2022-10-01T03:48:55;21.30;56.70
44427;DHT22;30133;47.866;-4.222;2022-10-01T03:51:22;21.30;56.70
44427;DHT22;30133;47.866;-4.222;2022-10-01T03:53:48;21.30;56.70
44427;DHT22;30133;47.866;-4.222;2022-10-01T03:56:15;21.30;56.70
44427;DHT22;30133;47.866;-4.222;2022-10-01T03:58:41;21.30;56.70
44427;DHT22;30133;47.866;-4.222;2022-10-01T04:01:07;21.30;56.70
44427;DHT22;30133;47.866;-4.222;2022-10-01T04:03:33;21.30;56.70
44427;DHT22;30133;47.866;-4.222;2022-10-01T04:05:59;21.30;56.70
44427;DHT22;30133;47.866;-4.222;2022-10-01T04:08:25;21.30;56.70
44427;DHT22;30133;47.866;-4.222;2022-10-01T04:10:51;21.30;56.70
44427;DHT22;30133;47.866;-4.222;2022-10-01T04:13:17;21.30;56.70
44427;DHT22;30133;47.866;-4.222;2022-10-01T04:15:43;21.20;56.70
44427;DHT22;30133;47.866;-4.222;2022-10-01T04:18:09;21.30;56.70
44427;DHT22;30133;47.866;-4.222;2022-10-01T04:20:36;21.30;56.80
44427;DHT22;30133;47.866;-4.222;2022-10-01T04:23:04;21.30;56.80
44427;DHT22;30133;47.866;-4.222;2022-10-01T04:25:30;21.30;56.80
44427;DHT22;30133;47.866;-4.222;2022-10-01T04:28:02;21.20;56.70
44427;DHT22;30133;47.866;-4.222;2022-10-01T04:30:32;21.30;56.80
44427;DHT22;30133;47.866;-4.222;2022-10-01T04:33:01;21.30;56.80
44427;DHT22;30133;47.866;-4.222;2022-10-01T04:35:28;21.30;56.80
44427;DHT22;30133;47.866;-4.222;2022-10-01T04:38:02;21.30;56.80
44427;DHT22;30133;47.866;-4.222;2022-10-01T04:40:32;21.30;56.80
44427;DHT22;30133;47.866;-4.222;2022-10-01T04:43:00;21.30;56.80
44427;DHT22;30133;47.866;-4.222;2022-10-01T04:45:30;21.30;56.80
44427;DHT22;30133;47.866;-4.222;2022-10-01T04:47:56;21.30;56.80
44427;DHT22;30133;47.866;-4.222;2022-10-01T04:50:25;21.30;56.80
44427;DHT22;30133;47.866;-4.222;2022-10-01T04:52:52;21.30;56.80
44427;DHT22;30133;47.866;-4.222;2022-10-01T04:55:19;21.30;56.90
44427;DHT22;30133;47.866;-4.222;2022-10-01T04:57:46;21.30;56.90
44427;DHT22;30133;47.866;-4.222;2022-10-01T05:00:16;21.30;56.90
44427;DHT22;30133;47.866;-4.222;2022-10-01T05:02:48;21.30;56.90
44427;DHT22;30133;47.866;-4.222;2022-10-01T05:05:16;21.30;56.90
44427;DHT22;30133;47.866;-4.222;2022-10-01T05:07:43;21.30;56.90
44427;DHT22;30133;47.866;-4.222;2022-10-01T05:10:12;21.30;56.90
44427;DHT22;30133;47.866;-4.222;2022-10-01T05:12:40;21.30;56.90
44427;DHT22;30133;47.866;-4.222;2022-10-01T05:15:07;21.30;56.90
44427;DHT22;30133;47.866;-4.222;2022-10-01T05:17:34;21.30;56.90
44427;DHT22;30133;47.866;-4.222;2022-10-01T05:20:01;21.30;56.90
44427;DHT22;30133;47.866;-4.222;2022-10-01T05:22:28;21.30;57.00
44427;DHT22;30133;47.866;-4.222;2022-10-01T05:24:56;21.30;57.00
44427;DHT22;30133;47.866;-4.222;2022-10-01T05:27:25;21.30;57.00
44427;DHT22;30133;47.866;-4.222;2022-10-01T05:29:52;21.30;57.00
44427;DHT22;30133;47.866;-4.222;2022-10-01T05:32:18;21.30;57.00
44427;DHT22;30133;47.866;-4.222;2022-10-01T05:34:44;21.30;56.90
44427;DHT22;30133;47.866;-4.222;2022-10-01T05:37:10;21.30;57.00
44427;DHT22;30133;47.866;-4.222;2022-10-01T05:39:37;21.30;56.90
44427;DHT22;30133;47.866;-4.222;2022-10-01T05:42:03;21.30;57.00
44427;DHT22;30133;47.866;-4.222;2022-10-01T05:44:29;21.30;57.00
44427;DHT22;30133;47.866;-4.222;2022-10-01T05:47:06;21.30;57.00
44427;DHT22;30133;47.866;-4.222;2022-10-01T05:49:33;21.30;57.00
44427;DHT22;30133;47.866;-4.222;2022-10-01T05:51:59;21.30;57.10
44427;DHT22;30133;47.866;-4.222;2022-10-01T05:54:27;21.30;57.00
44427;DHT22;30133;47.866;-4.222;2022-10-01T05:56:54;21.30;57.00
44427;DHT22;30133;47.866;-4.222;2022-10-01T05:59:21;21.30;57.00
44427;DHT22;30133;47.866;-4.222;2022-10-01T06:01:47;21.30;57.00
44427;DHT22;30133;47.866;-4.222;2022-10-01T06:04:13;21.30;57.00
44427;DHT22;30133;47.866;-4.222;2022-10-01T06:06:38;21.30;57.00
44427;DHT22;30133;47.866;-4.222;2022-10-01T06:09:05;21.30;57.10
44427;DHT22;30133;47.866;-4.222;2022-10-01T06:11:31;21.30;57.10
44427;DHT22;30133;47.866;-4.222;2022-10-01T06:14:00;21.30;57.10
44427;DHT22;30133;47.866;-4.222;2022-10-01T06:16:26;21.30;57.10
44427;DHT22;30133;47.866;-4.222;2022-10-01T06:18:52;21.20;57.10
44427;DHT22;30133;47.866;-4.222;2022-10-01T06:21:23;21.30;57.10
44427;DHT22;30133;47.866;-4.222;2022-10-01T06:23:50;21.30;57.10
44427;DHT22;30133;47.866;-4.222;2022-10-01T06:26:17;21.30;57.10
44427;DHT22;30133;47.866;-4.222;2022-10-01T06:28:43;21.30;57.10
44427;DHT22;30133;47.866;-4.222;2022-10-01T06:31:09;21.30;57.10
44427;DHT22;30133;47.866;-4.222;2022-10-01T06:33:36;21.30;57.10
44427;DHT22;30133;47.866;-4.222;2022-10-01T06:36:03;21.30;57.10
44427;DHT22;30133;47.866;-4.222;2022-10-01T06:38:29;21.30;57.10
44427;DHT22;30133;47.866;-4.222;2022-10-01T06:41:00;21.30;57.10
44427;DHT22;30133;47.866;-4.222;2022-10-01T06:43:28;21.30;57.10
44427;DHT22;30133;47.866;-4.222;2022-10-01T06:45:54;21.30;57.10
44427;DHT22;30133;47.866;-4.222;2022-10-01T06:48:21;21.20;57.10
44427;DHT22;30133;47.866;-4.222;2022-10-01T06:50:49;21.20;57.10
44427;DHT22;30133;47.866;-4.222;2022-10-01T06:53:17;21.30;57.20
44427;DHT22;30133;47.866;-4.222;2022-10-01T06:55:44;21.30;57.20
44427;DHT22;30133;47.866;-4.222;2022-10-01T06:58:19;21.30;57.20
44427;DHT22;30133;47.866;-4.222;2022-10-01T07:00:47;21.30;57.10
44427;DHT22;30133;47.866;-4.222;2022-10-01T07:03:16;21.30;57.20
44427;DHT22;30133;47.866;-4.222;2022-10-01T07:05:44;21.20;57.10
44427;DHT22;30133;47.866;-4.222;2022-10-01T07:08:11;21.20;57.10
44427;DHT22;30133;47.866;-4.222;2022-10-01T07:10:39;21.30;57.20
44427;DHT22;30133;47.866;-4.222;2022-10-01T07:13:08;21.30;57.20
44427;DHT22;30133;47.866;-4.222;2022-10-01T07:15:36;21.30;57.20
44427;DHT22;30133;47.866;-4.222;2022-10-01T07:18:03;21.20;57.20
44427;DHT22;30133;47.866;-4.222;2022-10-01T07:20:30;21.20;57.20
44427;DHT22;30133;47.866;-4.222;2022-10-01T07:23:01;21.20;57.20
44427;DHT22;30133;47.866;-4.222;2022-10-01T07:25:28;21.20;57.20
44427;DHT22;30133;47.866;-4.222;2022-10-01T07:27:59;21.20;57.20
44427;DHT22;30133;47.866;-4.222;2022-10-01T07:30:27;21.20;57.20
44427;DHT22;30133;47.866;-4.222;2022-10-01T07:32:53;21.20;57.20
44427;DHT22;30133;47.866;-4.222;2022-10-01T07:35:20;21.30;57.20
44427;DHT22;30133;47.866;-4.222;2022-10-01T07:37:49;21.20;57.20
44427;DHT22;30133;47.866;-4.222;2022-10-01T07:40:17;21.30;57.20
44427;DHT22;30133;47.866;-4.222;2022-10-01T07:42:55;21.30;57.30
44427;DHT22;30133;47.866;-4.222;2022-10-01T07:45:22;21.30;57.20
44427;DHT22;30133;47.866;-4.222;2022-10-01T07:47:59;21.30;57.20
44427;DHT22;30133;47.866;-4.222;2022-10-01T07:50:29;21.30;57.30
44427;DHT22;30133;47.866;-4.222;2022-10-01T07:52:57;21.30;57.30
44427;DHT22;30133;47.866;-4.222;2022-10-01T07:55:25;21.30;57.30
44427;DHT22;30133;47.866;-4.222;2022-10-01T07:57:54;21.20;57.30
44427;DHT22;30133;47.866;-4.222;2022-10-01T08:00:23;21.30;57.30
44427;DHT22;30133;47.866;-4.222;2022-10-01T08:02:52;21.30;57.30
44427;DHT22;30133;47.866;-4.222;2022-10-01T08:05:28;21.30;57.30
44427;DHT22;30133;47.866;-4.222;2022-10-01T08:08:03;21.20;57.20
44427;DHT22;30133;47.866;-4.222;2022-10-01T08:10:32;21.30;57.30
44427;DHT22;30133;47.866;-4.222;2022-10-01T08:13:06;21.30;57.30
44427;DHT22;30133;47.866;-4.222;2022-10-01T08:15:42;21.30;57.20
44427;DHT22;30133;47.866;-4.222;2022-10-01T08:18:14;21.40;57.20
44427;DHT22;30133;47.866;-4.222;2022-10-01T08:20:42;21.40;57.40
44427;DHT22;30133;47.866;-4.222;2022-10-01T08:23:11;21.40;57.70
44427;DHT22;30133;47.866;-4.222;2022-10-01T08:25:40;21.40;57.70
44427;DHT22;30133;47.866;-4.222;2022-10-01T08:28:07;21.50;58.60
44427;DHT22;30133;47.866;-4.222;2022-10-01T08:30:36;21.50;57.90
44427;DHT22;30133;47.866;-4.222;2022-10-01T08:33:04;21.60;57.80
44427;DHT22;30133;47.866;-4.222;2022-10-01T08:35:31;21.60;57.60
44427;DHT22;30133;47.866;-4.222;2022-10-01T08:38:04;21.60;57.70
44427;DHT22;30133;47.866;-4.222;2022-10-01T08:40:40;21.60;57.80
44427;DHT22;30133;47.866;-4.222;2022-10-01T08:46:09;21.60;57.90
44427;DHT22;30133;47.866;-4.222;2022-10-01T08:54:41;21.50;58.10
44427;DHT22;30133;47.866;-4.222;2022-10-01T08:57:21;21.60;58.10
44427;DHT22;30133;47.866;-4.222;2022-10-01T09:00:05;21.60;58.20
44427;DHT22;30133;47.866;-4.222;2022-10-01T09:02:38;21.70;58.20
44427;DHT22;30133;47.866;-4.222;2022-10-01T09:10:52;21.70;58.40
44427;DHT22;30133;47.866;-4.222;2022-10-01T09:16:33;21.70;58.40
44427;DHT22;30133;47.866;-4.222;2022-10-01T09:22:03;21.80;58.50
44427;DHT22;30133;47.866;-4.222;2022-10-01T09:27:44;21.90;58.70
44427;DHT22;30133;47.866;-4.222;2022-10-01T09:30:18;21.80;58.80
44427;DHT22;30133;47.866;-4.222;2022-10-01T09:33:03;21.80;58.90
44427;DHT22;30133;47.866;-4.222;2022-10-01T09:41:09;21.90;58.80
44427;DHT22;30133;47.866;-4.222;2022-10-01T09:43:38;21.90;58.80
44427;DHT22;30133;47.866;-4.222;2022-10-01T09:46:07;21.90;59.00
44427;DHT22;30133;47.866;-4.222;2022-10-01T09:48:40;22.00;59.20
44427;DHT22;30133;47.866;-4.222;2022-10-01T09:51:18;22.00;59.10
44427;DHT22;30133;47.866;-4.222;2022-10-01T09:54:08;21.90;59.20
44427;DHT22;30133;47.866;-4.222;2022-10-01T09:56:43;22.00;59.20
44427;DHT22;30133;47.866;-4.222;2022-10-01T09:59:18;22.00;59.00
44427;DHT22;30133;47.866;-4.222;2022-10-01T10:01:53;22.00;58.90
44427;DHT22;30133;47.866;-4.222;2022-10-01T10:04:22;22.10;58.90
44427;DHT22;30133;47.866;-4.222;2022-10-01T10:07:02;22.10;58.80
44427;DHT22;30133;47.866;-4.222;2022-10-01T10:09:34;22.10;58.80
44427;DHT22;30133;47.866;-4.222;2022-10-01T10:12:01;22.10;58.80
44427;DHT22;30133;47.866;-4.222;2022-10-01T10:14:34;22.10;58.70
44427;DHT22;30133;47.866;-4.222;2022-10-01T10:17:04;22.20;59.30
44427;DHT22;30133;47.866;-4.222;2022-10-01T10:19:32;22.10;58.50
44427;DHT22;30133;47.866;-4.222;2022-10-01T10:22:12;22.10;58.60
44427;DHT22;30133;47.866;-4.222;2022-10-01T10:24:53;22.10;58.60
44427;DHT22;30133;47.866;-4.222;2022-10-01T10:27:26;22.10;58.50
44427;DHT22;30133;47.866;-4.222;2022-10-01T10:30:06;22.10;58.50
44427;DHT22;30133;47.866;-4.222;2022-10-01T10:32:39;22.10;58.50
44427;DHT22;30133;47.866;-4.222;2022-10-01T10:35:10;22.10;58.50
44427;DHT22;30133;47.866;-4.222;2022-10-01T10:37:45;22.20;58.40
44427;DHT22;30133;47.866;-4.222;2022-10-01T10:40:18;22.20;58.30
44427;DHT22;30133;47.866;-4.222;2022-10-01T10:42:51;22.20;58.30
44427;DHT22;30133;47.866;-4.222;2022-10-01T10:45:30;22.20;58.30
44427;DHT22;30133;47.866;-4.222;2022-10-01T10:48:04;22.20;58.20
44427;DHT22;30133;47.866;-4.222;2022-10-01T10:50:35;22.20;58.20
44427;DHT22;30133;47.866;-4.222;2022-10-01T10:53:23;22.20;58.10
44427;DHT22;30133;47.866;-4.222;2022-10-01T10:56:03;22.30;58.10
44427;DHT22;30133;47.866;-4.222;2022-10-01T10:58:35;22.20;58.00
44427;DHT22;30133;47.866;-4.222;2022-10-01T11:01:10;22.20;58.00
44427;DHT22;30133;47.866;-4.222;2022-10-01T11:03:43;22.20;58.00
44427;DHT22;30133;47.866;-4.222;2022-10-01T11:06:13;22.30;58.00
44427;DHT22;30133;47.866;-4.222;2022-10-01T11:08:41;22.30;57.90
44427;DHT22;30133;47.866;-4.222;2022-10-01T11:15:17;22.30;57.90
44427;DHT22;30133;47.866;-4.222;2022-10-01T11:20:34;22.30;57.80
44427;DHT22;30133;47.866;-4.222;2022-10-01T11:23:33;22.30;57.80
44427;DHT22;30133;47.866;-4.222;2022-10-01T11:26:35;22.30;57.70
44427;DHT22;30133;47.866;-4.222;2022-10-01T11:29:35;22.30;57.70
44427;DHT22;30133;47.866;-4.222;2022-10-01T12:04:38;22.30;57.60
44427;DHT22;30133;47.866;-4.222;2022-10-01T12:10:16;22.30;57.50
44427;DHT22;30133;47.866;-4.222;2022-10-01T12:13:09;22.30;57.50
44427;DHT22;30133;47.866;-4.222;2022-10-01T12:22:27;22.30;57.50
44427;DHT22;30133;47.866;-4.222;2022-10-01T12:24:42;22.30;57.50
44427;DHT22;30133;47.866;-4.222;2022-10-01T12:30:18;22.40;57.50
44427;DHT22;30133;47.866;-4.222;2022-10-01T12:35:55;22.40;57.40
44427;DHT22;30133;47.866;-4.222;2022-10-01T12:41:26;22.30;57.50
44427;DHT22;30133;47.866;-4.222;2022-10-01T12:47:20;22.30;57.40
44427;DHT22;30133;47.866;-4.222;2022-10-01T12:55:50;22.40;57.40
44427;DHT22;30133;47.866;-4.222;2022-10-01T12:58:48;22.40;57.40
44427;DHT22;30133;47.866;-4.222;2022-10-01T13:01:57;22.30;57.30
44427;DHT22;30133;47.866;-4.222;2022-10-01T13:13:31;22.30;57.60
44427;DHT22;30133;47.866;-4.222;2022-10-01T13:16:09;22.30;58.00
44427;DHT22;30133;47.866;-4.222;2022-10-01T13:27:14;22.40;58.30
44427;DHT22;30133;47.866;-4.222;2022-10-01T13:30:14;22.40;58.30
44427;DHT22;30133;47.866;-4.222;2022-10-01T13:32:55;22.40;58.60
44427;DHT22;30133;47.866;-4.222;2022-10-01T13:35:30;22.40;58.60
44427;DHT22;30133;47.866;-4.222;2022-10-01T13:38:00;22.40;58.70
44427;DHT22;30133;47.866;-4.222;2022-10-01T13:40:33;22.40;58.60
44427;DHT22;30133;47.866;-4.222;2022-10-01T13:43:06;22.40;58.80
44427;DHT22;30133;47.866;-4.222;2022-10-01T13:45:42;22.50;58.90
44427;DHT22;30133;47.866;-4.222;2022-10-01T13:48:16;22.50;59.10
44427;DHT22;30133;47.866;-4.222;2022-10-01T13:53:32;22.60;59.30
44427;DHT22;30133;47.866;-4.222;2022-10-01T13:56:03;22.70;59.40
44427;DHT22;30133;47.866;-4.222;2022-10-01T13:58:35;22.70;59.10
44427;DHT22;30133;47.866;-4.222;2022-10-01T14:01:30;22.90;58.90
44427;DHT22;30133;47.866;-4.222;2022-10-01T14:04:36;23.00;58.60
44427;DHT22;30133;47.866;-4.222;2022-10-01T14:07:24;23.00;58.50
44427;DHT22;30133;47.866;-4.222;2022-10-01T14:09:56;23.00;58.80
44427;DHT22;30133;47.866;-4.222;2022-10-01T14:15:22;23.00;58.90
44427;DHT22;30133;47.866;-4.222;2022-10-01T14:18:15;23.00;58.90
44427;DHT22;30133;47.866;-4.222;2022-10-01T14:23:58;23.10;58.90
44427;DHT22;30133;47.866;-4.222;2022-10-01T14:26:56;23.20;58.80
44427;DHT22;30133;47.866;-4.222;2022-10-01T14:33:04;23.20;58.60
44427;DHT22;30133;47.866;-4.222;2022-10-01T14:36:48;23.20;58.50
44427;DHT22;30133;47.866;-4.222;2022-10-01T14:39:28;23.10;58.60
44427;DHT22;30133;47.866;-4.222;2022-10-01T14:41:56;23.00;58.50
44427;DHT22;30133;47.866;-4.222;2022-10-01T14:44:29;23.00;58.40
44427;DHT22;30133;47.866;-4.222;2022-10-01T14:47:19;23.00;58.80
44427;DHT22;30133;47.866;-4.222;2022-10-01T14:49:47;23.10;58.70
44427;DHT22;30133;47.866;-4.222;2022-10-01T14:52:28;23.10;58.90
44427;DHT22;30133;47.866;-4.222;2022-10-01T14:57:42;23.10;58.90
44427;DHT22;30133;47.866;-4.222;2022-10-01T15:00:17;23.20;58.90
44427;DHT22;30133;47.866;-4.222;2022-10-01T15:05:40;23.20;59.20
44427;DHT22;30133;47.866;-4.222;2022-10-01T15:08:18;23.30;59.40
44427;DHT22;30133;47.866;-4.222;2022-10-01T15:10:56;23.30;59.40
44427;DHT22;30133;47.866;-4.222;2022-10-01T15:13:35;23.40;59.50
44427;DHT22;30133;47.866;-4.222;2022-10-01T15:16:04;23.30;59.70
44427;DHT22;30133;47.866;-4.222;2022-10-01T15:18:36;23.30;59.70
44427;DHT22;30133;47.866;-4.222;2022-10-01T15:21:06;23.30;59.80
44427;DHT22;30133;47.866;-4.222;2022-10-01T15:23:35;23.30;60.10
44427;DHT22;30133;47.866;-4.222;2022-10-01T15:26:07;23.40;60.30
44427;DHT22;30133;47.866;-4.222;2022-10-01T15:28:36;23.50;59.90
44427;DHT22;30133;47.866;-4.222;2022-10-01T15:31:05;23.50;59.90
44427;DHT22;30133;47.866;-4.222;2022-10-01T15:33:35;23.50;59.60
44427;DHT22;30133;47.866;-4.222;2022-10-01T15:36:11;23.50;59.30
44427;DHT22;30133;47.866;-4.222;2022-10-01T15:38:41;23.50;59.40
44427;DHT22;30133;47.866;-4.222;2022-10-01T15:41:24;23.50;59.40
44427;DHT22;30133;47.866;-4.222;2022-10-01T15:43:52;23.50;59.10
44427;DHT22;30133;47.866;-4.222;2022-10-01T15:46:25;23.50;58.90
44427;DHT22;30133;47.866;-4.222;2022-10-01T15:51:56;23.50;58.60
44427;DHT22;30133;47.866;-4.222;2022-10-01T15:54:44;23.50;58.40
44427;DHT22;30133;47.866;-4.222;2022-10-01T15:57:20;23.50;58.20
44427;DHT22;30133;47.866;-4.222;2022-10-01T15:59:50;23.50;58.10
44427;DHT22;30133;47.866;-4.222;2022-10-01T16:02:23;23.50;58.20
44427;DHT22;30133;47.866;-4.222;2022-10-01T16:04:51;23.50;58.30
44427;DHT22;30133;47.866;-4.222;2022-10-01T16:07:25;23.50;58.20
44427;DHT22;30133;47.866;-4.222;2022-10-01T16:09:58;23.50;58.20
44427;DHT22;30133;47.866;-4.222;2022-10-01T16:12:38;23.50;58.20
44427;DHT22;30133;47.866;-4.222;2022-10-01T16:15:22;23.40;58.20
44427;DHT22;30133;47.866;-4.222;2022-10-01T16:17:58;23.50;58.30
44427;DHT22;30133;47.866;-4.222;2022-10-01T16:20:42;23.40;58.30
44427;DHT22;30133;47.866;-4.222;2022-10-01T16:26:29;23.50;58.20
44427;DHT22;30133;47.866;-4.222;2022-10-01T16:29:05;23.50;58.20
44427;DHT22;30133;47.866;-4.222;2022-10-01T16:31:34;23.50;58.20
44427;DHT22;30133;47.866;-4.222;2022-10-01T16:34:07;23.40;58.10
44427;DHT22;30133;47.866;-4.222;2022-10-01T16:36:37;23.40;58.10
44427;DHT22;30133;47.866;-4.222;2022-10-01T16:39:03;23.50;58.10
44427;DHT22;30133;47.866;-4.222;2022-10-01T16:41:31;23.50;58.10
44427;DHT22;30133;47.866;-4.222;2022-10-01T16:44:00;23.50;58.00
44427;DHT22;30133;47.866;-4.222;2022-10-01T16:46:28;23.50;58.00
44427;DHT22;30133;47.866;-4.222;2022-10-01T16:48:54;23.50;58.00
44427;DHT22;30133;47.866;-4.222;2022-10-01T16:51:20;23.50;57.90
44427;DHT22;30133;47.866;-4.222;2022-10-01T16:53:51;23.40;57.80
44427;DHT22;30133;47.866;-4.222;2022-10-01T16:56:20;23.50;57.90
44427;DHT22;30133;47.866;-4.222;2022-10-01T16:58:47;23.50;57.90
44427;DHT22;30133;47.866;-4.222;2022-10-01T17:01:14;23.50;57.90
44427;DHT22;30133;47.866;-4.222;2022-10-01T17:03:41;23.40;57.80
44427;DHT22;30133;47.866;-4.222;2022-10-01T17:06:07;23.40;57.80
44427;DHT22;30133;47.866;-4.222;2022-10-01T17:08:33;23.40;57.80
44427;DHT22;30133;47.866;-4.222;2022-10-01T17:11:03;23.40;57.90
44427;DHT22;30133;47.866;-4.222;2022-10-01T17:13:31;23.40;57.80
44427;DHT22;30133;47.866;-4.222;2022-10-01T17:16:00;23.40;57.80
44427;DHT22;30133;47.866;-4.222;2022-10-01T17:18:27;23.40;57.80
44427;DHT22;30133;47.866;-4.222;2022-10-01T17:20:54;23.40;57.80
44427;DHT22;30133;47.866;-4.222;2022-10-01T17:23:21;23.40;57.80
44427;DHT22;30133;47.866;-4.222;2022-10-01T17:25:48;23.40;57.80
44427;DHT22;30133;47.866;-4.222;2022-10-01T17:28:17;23.30;57.70
44427;DHT22;30133;47.866;-4.222;2022-10-01T17:30:46;23.30;57.70
44427;DHT22;30133;47.866;-4.222;2022-10-01T17:33:17;23.30;57.70
44427;DHT22;30133;47.866;-4.222;2022-10-01T17:35:46;23.30;57.70
44427;DHT22;30133;47.866;-4.222;2022-10-01T17:38:17;23.30;57.70
44427;DHT22;30133;47.866;-4.222;2022-10-01T17:40:44;23.30;57.70
44427;DHT22;30133;47.866;-4.222;2022-10-01T17:43:12;23.30;57.70
44427;DHT22;30133;47.866;-4.222;2022-10-01T17:45:41;23.30;57.70
44427;DHT22;30133;47.866;-4.222;2022-10-01T17:48:08;23.30;57.70
44427;DHT22;30133;47.866;-4.222;2022-10-01T17:50:35;23.20;57.70
44427;DHT22;30133;47.866;-4.222;2022-10-01T17:53:13;23.20;57.70
44427;DHT22;30133;47.866;-4.222;2022-10-01T17:55:41;23.20;57.60
44427;DHT22;30133;47.866;-4.222;2022-10-01T17:58:07;23.20;57.60
44427;DHT22;30133;47.866;-4.222;2022-10-01T18:00:40;23.20;57.60
44427;DHT22;30133;47.866;-4.222;2022-10-01T18:03:08;23.20;57.60
44427;DHT22;30133;47.866;-4.222;2022-10-01T18:05:34;23.20;57.60
44427;DHT22;30133;47.866;-4.222;2022-10-01T18:08:01;23.20;57.70
44427;DHT22;30133;47.866;-4.222;2022-10-01T18:10:29;23.20;57.60
44427;DHT22;30133;47.866;-4.222;2022-10-01T18:12:56;23.10;57.60
44427;DHT22;30133;47.866;-4.222;2022-10-01T18:15:28;23.20;57.60
44427;DHT22;30133;47.866;-4.222;2022-10-01T18:17:54;23.20;57.60
44427;DHT22;30133;47.866;-4.222;2022-10-01T18:20:21;23.10;57.60
44427;DHT22;30133;47.866;-4.222;2022-10-01T18:22:48;23.10;57.60
44427;DHT22;30133;47.866;-4.222;2022-10-01T18:25:15;23.10;57.60
44427;DHT22;30133;47.866;-4.222;2022-10-01T18:27:45;23.10;57.60